Terminal Aerodrome Forecast
Issued by NWS

Home | Current Version | Previous Version | Text Only | Print | Product List | Glossary On
Versions: 1 2 3 4 5 6 7 8 9 10 11 12 13 14 15 16 17 18 19
000
FTUS43 KEAX 290500
TAFSTJ
TAF
KSTJ 290520Z 2906/3006 32015G25KT P6SM SKC
     FM290800 33020G30KT P6SM OVC020
     FM291700 34015G25KT P6SM SCT040
     FM292300 34009KT P6SM SCT050=

USA.gov is the U.S. government's official web portal to all federal, state and local government web resources and services.